createdAt,value
2022-11-22T00:03:19.742Z,13.03
2022-11-22T00:09:13.331Z,12.97
2022-11-22T00:15:09.777Z,13.90
2022-11-22T00:21:07.212Z,14.87
2022-11-22T00:27:00.831Z,15.10
2022-11-22T00:32:55.661Z,16.00
2022-11-22T00:38:48.681Z,16.20
2022-11-22T00:44:42.089Z,16.40
2022-11-22T00:50:36.901Z,16.10
2022-11-22T00:56:32.343Z,17.37
2022-11-22T01:02:25.336Z,17.47
2022-11-22T01:08:19.788Z,16.93
2022-11-22T01:14:13.279Z,16.37
2022-11-22T01:20:07.857Z,18.63
2022-11-22T01:26:02.697Z,18.57
2022-11-22T01:31:56.108Z,16.60
2022-11-22T01:37:49.528Z,15.93
2022-11-22T01:43:44.301Z,17.10
2022-11-22T01:49:42.964Z,16.90
2022-11-22T01:55:37.387Z,16.77
2022-11-22T02:01:33.310Z,17.30
2022-11-22T02:07:32.313Z,15.77
2022-11-22T02:13:26.507Z,18.80
2022-11-22T02:19:28.865Z,19.43
2022-11-22T02:25:31.765Z,19.37
2022-11-22T02:31:41.030Z,17.67
2022-11-22T02:37:35.014Z,16.37
2022-11-22T02:43:31.692Z,17.00
2022-11-22T02:49:27.213Z,18.00
2022-11-22T02:55:20.663Z,15.97
2022-11-22T03:01:14.907Z,17.30
2022-11-22T03:07:09.812Z,17.03
2022-11-22T03:13:03.304Z,19.17
2022-11-22T03:18:56.782Z,16.53
2022-11-22T03:24:51.529Z,15.20
2022-11-22T03:30:44.971Z,17.07
2022-11-22T03:36:38.491Z,17.17
2022-11-22T03:42:33.493Z,16.43
2022-11-22T03:48:26.630Z,16.20
2022-11-22T03:54:20.112Z,14.90
2022-11-22T04:00:16.436Z,14.67
2022-11-22T04:06:09.864Z,14.33
2022-11-22T04:12:03.273Z,17.07
2022-11-22T04:17:58.050Z,15.90
2022-11-22T04:24:11.482Z,15.23
2022-11-22T04:30:05.321Z,18.13
2022-11-22T04:36:00.160Z,16.30
2022-11-22T04:42:14.146Z,18.27
2022-11-22T04:48:07.180Z,16.20
2022-11-22T04:54:02.054Z,18.20
2022-11-22T04:59:55.501Z,16.93
2022-11-22T05:05:49.736Z,16.83
2022-11-22T05:11:44.513Z,15.67
2022-11-22T05:17:38.547Z,17.80
2022-11-22T05:23:49.515Z,17.03
2022-11-22T05:29:44.282Z,15.87
2022-11-22T05:35:49.137Z,19.23
2022-11-22T05:41:56.331Z,18.70
2022-11-22T05:47:51.244Z,18.70
2022-11-22T05:53:46.352Z,17.00
2022-11-22T05:59:43.900Z,16.80
2022-11-22T06:05:39.026Z,18.10
2022-11-22T06:11:32.543Z,17.37
2022-11-22T06:17:25.587Z,18.63
2022-11-22T06:23:20.398Z,18.90
2022-11-22T06:29:14.178Z,19.90
2022-11-22T06:35:08.397Z,18.60
2022-11-22T06:41:04.437Z,17.03
2022-11-22T06:46:57.904Z,16.73
2022-11-22T06:52:52.626Z,16.67
2022-11-22T06:58:48.363Z,15.87
2022-11-22T07:05:02.189Z,19.20
2022-11-22T07:10:55.350Z,16.83
2022-11-22T07:16:50.164Z,20.33
2022-11-22T07:22:43.181Z,19.33
2022-11-22T07:28:36.714Z,16.90
2022-11-22T07:34:32.635Z,18.43
2022-11-22T07:40:26.135Z,17.60
2022-11-22T07:46:23.469Z,17.60
2022-11-22T07:52:18.308Z,20.00
2022-11-22T07:58:11.845Z,18.27
2022-11-22T08:04:05.349Z,20.63
2022-11-22T08:10:00.215Z,19.77
2022-11-22T08:15:54.895Z,18.60
2022-11-22T08:21:55.379Z,18.97
2022-11-22T08:27:53.055Z,18.93
2022-11-22T08:33:46.868Z,19.23
2022-11-22T08:39:40.318Z,20.87
2022-11-22T08:45:35.584Z,18.87
2022-11-22T08:51:28.652Z,20.10
2022-11-22T08:57:22.077Z,20.30
2022-11-22T09:03:16.928Z,19.83
2022-11-22T09:15:25.515Z,22.83
2022-11-22T09:21:20.773Z,20.37
2022-11-22T09:27:14.233Z,23.17
2022-11-22T09:33:07.233Z,19.30
2022-11-22T09:39:02.049Z,20.80
2022-11-22T09:45:29.179Z,18.30
2022-11-22T09:51:29.062Z,20.70
2022-11-22T09:57:28.704Z,19.27
2022-11-22T10:03:29.412Z,19.80
2022-11-22T10:09:33.017Z,18.67
2022-11-22T10:15:33.256Z,17.10
2022-11-22T10:21:27.850Z,18.40
2022-11-22T10:27:20.852Z,19.60
2022-11-22T10:33:20.221Z,20.83
2022-11-22T10:39:27.853Z,20.87
2022-11-22T10:45:31.153Z,21.93
2022-11-22T10:51:32.604Z,17.83
2022-11-22T10:57:34.447Z,18.43
2022-11-22T11:03:31.616Z,18.80
2022-11-22T11:10:09.834Z,20.87
2022-11-22T11:15:55.994Z,21.13
2022-11-22T11:21:56.679Z,18.00
2022-11-22T11:27:53.091Z,17.67
2022-11-22T11:33:47.862Z,22.20
2022-11-22T11:39:47.770Z,18.40
2022-11-22T11:45:42.281Z,17.63
2022-11-22T11:51:40.030Z,17.50
2022-11-22T11:57:36.940Z,18.10
2022-11-22T12:03:31.700Z,16.67
2022-11-22T12:09:34.401Z,21.27
2022-11-22T12:15:35.694Z,22.77
2022-11-22T12:21:36.722Z,19.50
2022-11-22T12:27:30.240Z,19.07
2022-11-22T12:33:28.675Z,22.50
2022-11-22T12:39:28.002Z,17.57
2022-11-22T12:45:28.732Z,17.90
2022-11-22T12:51:28.305Z,19.37
2022-11-22T12:57:30.288Z,18.87
2022-11-22T13:03:31.748Z,21.00
2022-11-22T13:09:29.792Z,21.87
2022-11-22T13:15:29.510Z,22.33
2022-11-22T13:21:31.836Z,19.80
2022-11-22T13:27:31.114Z,19.97
2022-11-22T13:33:28.160Z,24.53
2022-11-22T13:39:26.310Z,23.33
2022-11-22T13:45:24.517Z,20.43
2022-11-22T13:51:56.354Z,22.30
2022-11-22T13:57:49.832Z,23.63
2022-11-22T14:03:43.264Z,19.90
2022-11-22T14:09:41.808Z,21.37
2022-11-22T14:16:11.075Z,23.23
2022-11-22T14:22:21.728Z,24.03
2022-11-22T14:28:37.065Z,20.33
2022-11-22T14:34:32.304Z,20.00
2022-11-22T14:40:35.316Z,22.83
2022-11-22T14:46:52.859Z,21.20
2022-11-22T14:52:49.478Z,21.57
2022-11-22T14:58:50.309Z,20.53
2022-11-22T15:09:18.105Z,22.97
2022-11-22T15:11:34.638Z,19.90
2022-11-22T16:01:47.346Z,20.13
2022-11-22T16:07:43.718Z,22.63
2022-11-22T16:13:38.114Z,23.10
2022-11-22T16:19:32.863Z,19.40
2022-11-22T16:25:33.025Z,22.57
2022-11-22T16:31:28.526Z,22.27
2022-11-22T16:37:31.837Z,24.60
2022-11-22T16:43:36.534Z,22.80
2022-11-22T16:49:33.059Z,23.43
2022-11-22T16:55:27.870Z,23.57
2022-11-22T17:01:24.404Z,23.67
2022-11-22T17:07:18.074Z,24.07
2022-11-22T17:13:18.186Z,29.10
2022-11-22T17:19:37.556Z,25.90
2022-11-22T17:25:26.301Z,22.40
2022-11-22T17:31:22.473Z,22.33
2022-11-22T17:37:16.144Z,26.33
2022-11-22T17:43:10.833Z,22.47
2022-11-22T17:49:06.928Z,26.20
2022-11-22T17:55:05.209Z,24.17
2022-11-22T18:01:06.176Z,26.47
2022-11-22T18:07:00.956Z,27.63
2022-11-22T18:13:19.613Z,34.83
2022-11-22T18:19:20.539Z,26.93
2022-11-22T18:25:26.465Z,26.87
2022-11-22T18:31:32.875Z,25.57
2022-11-22T18:37:44.393Z,24.90
2022-11-22T18:43:39.291Z,23.37
2022-11-22T18:49:33.602Z,27.67
2022-11-22T18:55:27.377Z,25.40
2022-11-22T19:01:24.884Z,22.20
2022-11-22T19:07:18.489Z,24.47
2022-11-22T19:13:12.003Z,25.23
2022-11-22T19:19:08.327Z,25.73
2022-11-22T19:25:01.761Z,28.43
2022-11-22T19:30:55.216Z,28.70
2022-11-22T19:36:50.007Z,25.00
2022-11-22T19:42:42.999Z,25.87
2022-11-22T19:48:36.772Z,29.57
2022-11-22T19:54:31.691Z,23.13
2022-11-22T20:00:25.247Z,22.00
2022-11-22T20:06:18.793Z,24.13
2022-11-22T20:12:13.614Z,20.33
2022-11-22T20:18:07.330Z,23.30
2022-11-22T20:24:01.428Z,23.47
2022-11-22T20:29:56.407Z,23.40
2022-11-22T20:35:49.917Z,27.37
2022-11-22T20:41:43.383Z,27.30
2022-11-22T20:47:38.203Z,20.77
2022-11-22T20:53:31.279Z,23.90
2022-11-22T20:59:24.976Z,23.50
2022-11-22T21:05:19.840Z,23.83
2022-11-22T21:11:15.337Z,25.73
2022-11-22T21:17:39.237Z,20.73
2022-11-22T21:23:27.548Z,25.37
2022-11-22T21:29:21.196Z,22.47
2022-11-22T21:35:14.853Z,20.10
2022-11-22T21:47:27.789Z,21.47
2022-11-22T21:53:21.643Z,24.70
2022-11-22T21:59:16.449Z,21.07
2022-11-22T22:05:10.332Z,21.60
2022-11-22T22:11:05.589Z,22.67
2022-11-22T22:17:00.434Z,19.90
2022-11-22T22:22:53.838Z,20.53
2022-11-22T22:28:47.899Z,22.43
2022-11-22T22:34:42.665Z,23.60
2022-11-22T22:40:36.145Z,20.67
2022-11-22T22:46:29.582Z,24.63
2022-11-22T22:52:24.061Z,23.80
2022-11-22T22:58:21.768Z,19.50
2022-11-22T23:04:15.510Z,19.93
2022-11-22T23:10:11.297Z,21.10
2022-11-22T23:16:05.136Z,20.37
2022-11-22T23:21:58.654Z,22.40
2022-11-22T23:27:55.575Z,21.50
2022-11-22T23:33:49.056Z,22.20
2022-11-22T23:39:42.512Z,22.63
2022-11-22T23:45:36.968Z,22.93
2022-11-22T23:51:31.740Z,24.97
2022-11-22T23:57:25.248Z,22.27
